Address 0xe1e0f8c1fee4bac8219711fb0f4333df1cafe2bf 6

 
Txn Hash Method
Block
From
To
Value [Txn Fee]
0x72b5f288ead89eb640d83a3c1c9f538067dfbaee11703e70e4cf6b8fa9b15376Safe Transfer Fr...47446922022-01-17 23:34:082 hrs 19 mins ago0xe1e0f8c1fee4bac8219711fb0f4333df1cafe2bfOUT Uniswap V3: Positions NFT0 ETH0.002339367641 ETH
0xc7867d11395500b9120e807694663592af3a6be43672075a2ae72d28897729550x8831645647446452022-01-17 23:34:082 hrs 19 mins ago0xe1e0f8c1fee4bac8219711fb0f4333df1cafe2bfOUT Uniswap V3: Positions NFT0 ETH0.00245310977 ETH
0x757dc259cd7dc7c30c5f96d0e990dba018eb9250c96130999681cb7d5d471c76Approve47445832022-01-17 23:30:582 hrs 22 mins ago0xe1e0f8c1fee4bac8219711fb0f4333df1cafe2bfOUT 0xd74f5255d557944cf7dd0e45ff521520002d57480 ETH0.001047274678 ETH
0xee272101d5319588f1b0f8f152a99112208e592b64172803d608fe4600875cebApprove47445782022-01-17 23:30:582 hrs 22 mins ago0xe1e0f8c1fee4bac8219711fb0f4333df1cafe2bfOUT 0x5575552988a3a80504bbaeb1311674fcfd40ad4b0 ETH0.001048569764 ETH
0x1b35c4df24e362299ad54e7c80cb15b8c2f05239cae9337bd58b535d98d2f1b90x11132da047445542022-01-17 23:28:162 hrs 24 mins ago0xe1e0f8c1fee4bac8219711fb0f4333df1cafe2bfOUT 0xf783dd830a4650d2a8594423f123250652340e3f0 ETH0.001545768002 ETH
0x35c18fb4093456e8071cb4b82e29c658faf0c7b4a2e687fb0d5d63a38cb890fbApprove47409192022-01-17 21:08:154 hrs 44 mins ago0xe1e0f8c1fee4bac8219711fb0f4333df1cafe2bfOUT 0xff970a61a04b1ca14834a43f5de4533ebddb5cc80 ETH0.001014911766 ETH
0x36fed4c17f8603721be932de1448e9c5c36399bc9a8be420a39a6afd3ce7a924Approve47408572022-01-17 21:06:034 hrs 47 mins ago0xe1e0f8c1fee4bac8219711fb0f4333df1cafe2bfOUT 0x5575552988a3a80504bbaeb1311674fcfd40ad4b0 ETH0.001014072912 ETH
0xb4ca605096ac75bf8abdbb8ad3ac6b1e2e8655ba4068226beea804af29a55c89Swap Exact Token...47408322022-01-17 21:04:244 hrs 48 mins ago0xe1e0f8c1fee4bac8219711fb0f4333df1cafe2bfOUT SushiSwap: Router0 ETH0.00152667911 ETH
0x92308f81d1bc1421f8ff643b04b9de41d28e98e180139b96c1040d749e477048Buy Item47405952022-01-17 20:54:204 hrs 58 mins ago0xe1e0f8c1fee4bac8219711fb0f4333df1cafe2bfOUT 0x2e3b85f85628301a0bce300dee3a6b04195a15ee0 ETH0.001833716819 ETH
0xcd1ec0d7135197229bcbd71d7a409c285532fa47ca16ba219155d48101c5b30fUpdate Listing47347702022-01-17 16:41:249 hrs 11 mins ago0xe1e0f8c1fee4bac8219711fb0f4333df1cafe2bfOUT 0x2e3b85f85628301a0bce300dee3a6b04195a15ee0 ETH0.000955478209 ETH
0x75ff19bc01b69ebc6e12d7d6153161666cfdf56258de35d6baabbe6c9284d917Create Listing47347602022-01-17 16:41:249 hrs 11 mins ago0xe1e0f8c1fee4bac8219711fb0f4333df1cafe2bfOUT 0x2e3b85f85628301a0bce300dee3a6b04195a15ee0 ETH0.001325734281 ETH
0x3aed96c44c2eeb6b79a2ca068616419c80dcae332404dc25b8fb8571553335b2Update Listing47347162022-01-17 16:39:329 hrs 13 mins ago0xe1e0f8c1fee4bac8219711fb0f4333df1cafe2bfOUT 0x2e3b85f85628301a0bce300dee3a6b04195a15ee0 ETH0.000957529731 ETH
0x1fecb26a82ac2a67ff6a9339f5c1ec1ff4311862a0968fe50837f6e83315a976Handle Rewards47345342022-01-17 16:33:599 hrs 19 mins ago0xe1e0f8c1fee4bac8219711fb0f4333df1cafe2bfOUT 0xa906f338cb21815cbc4bc87ace9e68c87ef8d8f10 ETH0.001105735904 ETH
0x6e2ade75080e398d68f9912152ddc568ef104d49c3337d8179cab2bea9a8bee70xba84775947345082022-01-17 16:32:129 hrs 20 mins ago0xe1e0f8c1fee4bac8219711fb0f4333df1cafe2bfOUT 0x7bc8b1b5aba4df3be9f9a32dae501214dc0e4f3f0.2 ETH0.004310295517 ETH
0xde188c6259a90e906b3db627adac87b5e68e1bf10d8157a3b6b9499c28f8259cMint And Stake G...47291122022-01-17 12:40:5613 hrs 12 mins ago0xe1e0f8c1fee4bac8219711fb0f4333df1cafe2bfOUT 0xa906f338cb21815cbc4bc87ace9e68c87ef8d8f10 ETH0.001089123105 ETH
0x48a7ea19701fec9dc0666ce2f890e794888e98e86447a40007e3d6a547c0926fApprove47291022022-01-17 12:40:1513 hrs 12 mins ago0xe1e0f8c1fee4bac8219711fb0f4333df1cafe2bfOUT MIM Abracadabra.money: MIM Token0 ETH0.001066372344 ETH
0xf62750d06cb7bf69de567a6819a07f817239c5728b90aa68109ca2cda836e414Multicall47276842022-01-17 11:32:4514 hrs 20 mins ago0xe1e0f8c1fee4bac8219711fb0f4333df1cafe2bfOUT 0x68b3465833fb72a70ecdf485e0e4c7bd8665fc450.4 ETH0.001459366192 ETH
0xeaa4ec89d5389199b2c28f1bd47bcbd6d4c19a86b392b49e0d9e3c0293e29362Unstake And Rede...47276562022-01-17 11:30:2214 hrs 22 mins ago0xe1e0f8c1fee4bac8219711fb0f4333df1cafe2bfOUT 0xa906f338cb21815cbc4bc87ace9e68c87ef8d8f10 ETH0.001081105861 ETH
0xb61cac9ae3480b09b315659f7c251edd89af76d8a03f9a3cdb2f619baa258d14Unstake And Rede...47134622022-01-17 0:13:121 day 1 hr ago0xe1e0f8c1fee4bac8219711fb0f4333df1cafe2bfOUT 0xa906f338cb21815cbc4bc87ace9e68c87ef8d8f10 ETH0.001448475789 ETH
0xfd1b42e2162f71fa5754d8915f5e94975093261dc5f3648e7b915c298bcf45e40xba84775947134242022-01-17 0:12:201 day 1 hr ago0xe1e0f8c1fee4bac8219711fb0f4333df1cafe2bfOUT 0x7bc8b1b5aba4df3be9f9a32dae501214dc0e4f3f0.18 ETH0.00477860897 ETH
0xd4e6627dba4058e2dfb321cd2b42182aeb775151dba64ee8f31055d67c0c5e5fHandle Rewards46956042022-01-16 12:30:421 day 13 hrs ago0xe1e0f8c1fee4bac8219711fb0f4333df1cafe2bfOUT 0xa906f338cb21815cbc4bc87ace9e68c87ef8d8f10 ETH0.001062693292 ETH
0x4a6f91b88bde2230e2491bedd1cab1f49095854cc3ebb0fcb59da3e8ae04f120Transfer46951342022-01-16 12:07:341 day 13 hrs ago0xe1e0f8c1fee4bac8219711fb0f4333df1cafe2bfOUT0x539bde0d7dbd336b79148aa742883198bbf603420 ETH0.000943998341 ETH
0xd1e0f1d5030cf0df2868fa8812d3e0fa0bc69109ff947920d0a42421afe1e6ffCreate Listing46818112022-01-16 0:33:472 days 1 hr ago0xe1e0f8c1fee4bac8219711fb0f4333df1cafe2bfOUT 0x2e3b85f85628301a0bce300dee3a6b04195a15ee0 ETH0.001586236179 ETH
0xbd84f2d5a9177af25f478531caedfbf64700534b42e7f6fc4c4266b82bdc898dWithdraw Positio...46817992022-01-16 0:33:472 days 1 hr ago0xe1e0f8c1fee4bac8219711fb0f4333df1cafe2bfOUT 0xd300322832765fee6b910d314f2c2d879427226f0 ETH0.001750168198 ETH
0x83065d9d8c2abf80ef18c6cdac2b5a7ca91eebee3118ee4f2dd1f66ee4d3d3adCreate Listing46816902022-01-16 0:28:172 days 1 hr ago0xe1e0f8c1fee4bac8219711fb0f4333df1cafe2bfOUT 0x2e3b85f85628301a0bce300dee3a6b04195a15ee0 ETH0.001592337552 ETH
[ Download CSV Export 
Parent Txn Hash Block From To Value
Loading

Contract Name:
0 ETH

Compiler Version
0

Optimization Enabled:
0 ETH

Other Settings:
-NA-
Block Transaction Gas Used Reward
Age Block Fee Address BC Fee Address Voting Power Jailed Incoming
Block Uncle Number Difficulty Gas Used Reward
Loading
Loading
Make sure to use the "Vote Down" button for any spammy posts, and the "Vote Up" for interesting conversations.